This is the latest recevied weather packets stored in our database for station/object HB9TVK-13. If no packets are shown the sender has not sent any weather packets the latest 10 day(s).
| Time | Temp. | Humidity | Pressure | Rain* | Wind** | Luminosity | Snow |
|---|---|---|---|---|---|---|---|
| 1777748238 | 16.11° C | 64% | 1018.5 hPa | 0 mm | - | - | - |
| 1777747635 | 15.56° C | 66% | 1018.5 hPa | 0 mm | - | - | - |
| 1777747036 | 16.11° C | 66% | 1018.5 hPa | 0 mm | - | - | - |
| 1777746436 | 16.11° C | 66% | 1018.5 hPa | 0 mm | - | - | - |
| 1777745836 | 16.67° C | 66% | 1018.5 hPa | 0 mm | - | - | - |
| 1777745237 | 17.78° C | 63% | 1018.4 hPa | 0 mm | - | - | - |
| 1777744637 | 18.33° C | 65% | 1018.3 hPa | 0 mm | - | - | - |
| 1777744038 | 19.44° C | 63% | 1018.4 hPa | 0 mm | - | - | - |
| 1777743435 | 21.67° C | 59% | 1018.4 hPa | 0 mm | - | - | - |
| 1777742836 | 22.78° C | 50% | 1018.4 hPa | 0 mm | - | - | - |
| 1777742236 | 23.33° C | 45% | 1018.4 hPa | 0 mm | - | - | - |
| 1777741637 | 23.33° C | 42% | 1018.4 hPa | 0 mm | - | - | - |
| 1777741037 | 23.89° C | 41% | 1018.5 hPa | 0 mm | - | - | - |
| 1777740437 | 23.89° C | 42% | 1018.6 hPa | 0 mm | - | - | - |
| 1777739838 | 23.89° C | 41% | 1018.7 hPa | 0 mm | - | - | - |
| 1777739236 | 24.44° C | 39% | 1018.7 hPa | 0 mm | - | - | - |
| 1777738636 | 25° C | 40% | 1018.9 hPa | 0 mm | - | - | - |
| 1777738037 | 24.44° C | 41% | 1019 hPa | 0 mm | - | - | - |
| 1777737437 | 24.44° C | 40% | 1019.1 hPa | 0 mm | - | - | - |
| 1777736837 | 24.44° C | 40% | 1019.1 hPa | 0 mm | - | - | - |
| 1777736237 | 24.44° C | 39% | 1019.2 hPa | 0 mm | - | - | - |
| 1777735638 | 24.44° C | 40% | 1019.4 hPa | 0 mm | - | - | - |
| 1777735035 | 25° C | 39% | 1019.5 hPa | 0 mm | - | - | - |
| 1777734436 | 24.44° C | 40% | 1019.5 hPa | 0 mm | - | - | - |
| 1777733836 | 24.44° C | 39% | 1019.6 hPa | 0 mm | - | - | - |
* Rain latest hour (hover to see other rain measurements)
** Current wind speed in m/s (hover to see current wind gust speed)